x

North Equatorial One- 470 Nm East Of Martinique (41040) Wave Buoy

6:50am - Sat 19th Apr 2014 All times are UTC.

  • Sig Wave height 8.9ft
  • Swell Direction
  • Peak Period 8s
  • Average Period 6s
  • Wind
    22mph, 27mph gusts
  • Sea Temp 79°f
  • Air Temp 77°f
  • Sea Pressure 1015.2mb

More Historic Weather Station data

Upgrade to MSW Pro to gain access to the past 30 days of data for over 8000 Wavebouys and Weather Stations around the globe.

Join Pro

Comparision Forecast

View Surf forecast
   
Sat 04/19 6:50am 9ft 8s 6s 22 27 mph 1015.2mb 79f 77f
5:50am 8.5ft 9s 6s 22 27 mph 1015.2mb 79f 77f
4:50am 8ft 7s 6s 22 27 mph 1015.8mb 79f 77f
3:50am 8ft 7s 6s 22 27 mph 1016.5mb 79f 77f
2:50am 7.5ft 8s 6s 22 27 mph 1016.8mb 79f 78f
1:50am 8ft 8s 6s 22 29 mph 1017.2mb 79f 78f
12:50am 8ft 8s 6s 22 27 mph 1016.8mb 79f 78f
Fri 04/18 11:50pm 8ft 8s 6s 20 27 mph 1016.4mb 79f 78f
10:50pm 8ft 7s 6s 22 27 mph 1015.8mb 79f 78f
9:50pm 8ft 9s 6s 22 27 mph 1015.3mb 79f 78f
8:50pm 7.5ft 8s 6s 20 25 mph 1015.1mb 79f 78f
7:50pm 7ft 7s 6s 22 27 mph 1014.8mb 79f 78f
6:50pm 7ft 7s 6s 22 29 mph 1014.8mb 79f 78f
5:50pm 7ft 8s 6s 22 27 mph 1015mb 79f 78f
4:50pm 7ft 7s 6s 22 27 mph 1015.4mb 79f 78f
3:50pm 7ft 7s 6s 22 25 mph 1016.1mb 79f 78f
2:50pm 7ft 8s 6s 22 25 mph 1016.6mb 79f 78f
1:50pm 7ft 8s 6s 22 27 mph 1016.8mb 79f 78f
12:50pm 7ft 8s 6s 22 27 mph 1016.8mb 79f 78f
11:50am 7ft 8s 6s 20 25 mph 1016.6mb 79f 78f
10:50am 7ft 9s 6s 20 22 mph 1016.2mb 79f 77f
9:50am 7ft 9s 6s 20 25 mph 1015.5mb 79f 77f
8:50am 6.5ft 6s 6s 20 25 mph 1015.1mb 79f 77f
7:50am 7ft 8s 6s 20 25 mph 1014.6mb 79f 77f
6:50am 6.5ft 9s 6s 20 25 mph 1014.6mb 79f 77f
5:50am 7ft 8s 6s 20 25 mph 1014.9mb 79f 77f
4:50am 6.5ft 9s 6s 20 22 mph 1015.6mb 79f 77f
3:50am 6ft 9s 6s 18 22 mph 1016.3mb 79f 78f
2:50am 6ft 8s 6s 18 25 mph 1016.8mb 79f 77f
1:50am 6ft 7s 6s 18 22 mph 1017.1mb 79f 78f
12:50am 6.5ft 9s 6s 18 20 mph 1017mb 79f 78f
Thu 04/17 10:50pm 6.5ft 8s 6s 18 22 mph 1015.7mb 79f 78f
9:50pm 6ft 8s 6s 18 22 mph 1015.3mb 79f 78f
8:50pm 6ft 8s 6s 16 20 mph 1014.9mb 79f 78f
7:50pm 5.5ft 8s 6s 18 20 mph 1014.5mb 79f 78f
6:50pm 6ft 7s 6s 16 20 mph 1014.7mb 79f 78f
5:50pm 6ft 7s 6s 16 18 mph 1015.1mb 79f 78f
4:50pm 6ft 7s 6s 16 18 mph 1015.5mb 79f 77f
3:50pm 5.5ft 7s 6s 16 20 mph 1016.1mb 79f 78f
2:50pm 6ft 8s 6s 18 20 mph 1016.4mb 79f 77f
1:50pm 5.5ft 8s 5s 16 20 mph 1016.5mb 79f 77f
12:50pm 6ft 7s 6s 18 20 mph 1016.3mb 79f 77f
11:50am 6ft 8s 6s 18 20 mph 1016mb 79f 77f
10:50am 6ft 9s 6s 18 20 mph 1015.4mb 79f 77f
9:50am 6ft 7s 6s 18 20 mph 1014.8mb 79f 77f
8:50am 6ft 8s 6s 18 22 mph 1014.5mb 79f 77f
7:50am 6ft 7s 6s 16 20 mph 1014.2mb 79f 77f
6:50am 6ft 9s 6s 16 20 mph 1014mb 79f 77f
5:50am 5.5ft 7s 6s 16 20 mph 1014.5mb 79f 77f
4:50am 6ft 7s 6s 16 18 mph 1015.1mb 79f 77f
3:50am 6ft 7s 6s 18 22 mph 1015.6mb 79f 77f
2:50am 5.5ft 7s 6s 18 22 mph 1015.9mb 79f 77f
1:50am 6ft 7s 6s 18 22 mph 1015.9mb 79f 77f
12:50am 6ft 7s 6s 18 20 mph 1015.8mb 79f 77f
Wed 04/16 11:50pm 6ft 7s 6s 18 20 mph 1015.4mb 79f 77f
10:50pm 5.5ft 7s 6s 18 22 mph 1014.9mb 79f 77f
9:50pm 5.5ft 7s 6s 16 20 mph 1014.2mb 79f 78f
8:50pm 6ft 7s 6s 18 20 mph 1013.5mb 79f 78f
7:50pm 6ft 7s 6s 18 20 mph 1013.1mb 79f 78f
6:50pm 5.5ft 8s 6s 18 20 mph 1013.6mb 79f 77f
5:50pm 6ft 7s 6s 18 20 mph 1014mb 79f 77f
4:50pm 6ft 7s 5s 18 20 mph 1014.6mb 79f 77f
3:50pm 6ft 6s 5s 20 22 mph 1015.1mb 79f 77f
2:50pm 5.5ft 7s 5s 20 25 mph 1015.5mb 79f 78f
1:50pm 6ft 7s 5s 16 22 mph 1015.9mb 79f 74f
12:50pm 5.5ft 7s 5s 16 18 mph 1016.2mb 79f 77f
11:50am 5.5ft 7s 6s 22 27 mph 1015.8mb 79f 75f
10:50am 5.5ft 7s 6s 16 20 mph 1015.2mb 79f 77f
9:50am 6ft 7s 6s 16 20 mph 1014.4mb 79f 77f
8:50am 6ft 8s 6s 18 20 mph 1014mb 79f 77f
7:50am 6ft 9s 6s 16 18 mph 1013.7mb 79f 75f
6:50am 6ft 7s 6s 20 22 mph 1013.3mb 79f 76f
5:50am 6ft 7s 6s 16 20 mph 1013.6mb 79f 77f
4:50am 6ft 7s 6s 18 20 mph 1014.2mb 79f 77f
3:50am 6ft 9s 6s 18 22 mph 1014.7mb 79f 77f
2:50am 6ft 7s 6s 16 20 mph 1015.4mb 79f 76f
1:50am 5.5ft 7s 6s 16 18 mph 1015.6mb 79f 78f
12:50am 6ft 7s 6s 16 18 mph 1015.5mb 79f 78f
Tue 04/15 11:50pm 6ft 7s 6s 16 20 mph 1014.6mb 79f 78f
10:50pm 6ft 10s 6s 16 18 mph 1014.1mb 79f 78f
9:50pm 6ft 9s 6s 16 20 mph 1013.3mb 79f 76f
8:50pm 6ft 9s 6s 16 20 mph 1012.7mb 79f 76f
7:50pm 6ft 9s 6s 16 18 mph 1012.5mb 79f 78f
6:50pm 5.5ft 10s 6s 16 20 mph 1012.4mb 79f 78f
5:50pm 5.5ft 7s 6s 18 22 mph 1012.8mb 79f 78f
4:50pm 5ft 9s 5s 16 18 mph 1013.6mb 79f 78f
3:50pm 5ft 10s 6s 16 20 mph 1014.5mb 79f 78f
2:50pm 5ft 9s 6s 13 18 mph 1014.9mb 79f 78f
1:50pm 5ft 9s 6s 13 18 mph 1015.1mb 79f 77f
12:50pm 5ft 9s 6s 16 18 mph 1015.3mb 79f 77f
11:50am 5ft 9s 6s 16 18 mph 1015mb 79f 77f
10:50am 5ft 9s 6s 16 20 mph 1014.4mb 79f 77f
9:50am 5ft 8s 6s 13 16 mph 1014.1mb 79f 77f
8:50am 5ft 9s 6s 16 20 mph 1013.5mb 79f 76f
7:50am 5ft 8s 6s 16 18 mph 1013.2mb 79f 77f